sensor_id;sensor_type;location;lat;lon;timestamp;P1;durP1;ratioP1;P2;durP2;ratioP2
12774;SDS011;6451;42.630;23.382;2023-02-03T00:01:13;4.53;;;2.67;;
12774;SDS011;6451;42.630;23.382;2023-02-03T00:03:40;2.47;;;2.23;;
12774;SDS011;6451;42.630;23.382;2023-02-03T00:06:12;3.90;;;2.57;;
12774;SDS011;6451;42.630;23.382;2023-02-03T00:08:39;4.33;;;3.00;;
12774;SDS011;6451;42.630;23.382;2023-02-03T00:11:06;2.90;;;2.33;;
12774;SDS011;6451;42.630;23.382;2023-02-03T00:13:34;3.60;;;2.67;;
12774;SDS011;6451;42.630;23.382;2023-02-03T00:16:02;3.33;;;2.57;;
12774;SDS011;6451;42.630;23.382;2023-02-03T00:18:30;3.53;;;2.50;;
12774;SDS011;6451;42.630;23.382;2023-02-03T00:20:58;3.57;;;2.50;;
12774;SDS011;6451;42.630;23.382;2023-02-03T00:23:27;2.70;;;2.40;;
12774;SDS011;6451;42.630;23.382;2023-02-03T00:25:56;3.83;;;2.60;;
12774;SDS011;6451;42.630;23.382;2023-02-03T00:28:23;3.67;;;2.63;;
12774;SDS011;6451;42.630;23.382;2023-02-03T00:30:52;2.83;;;2.40;;
12774;SDS011;6451;42.630;23.382;2023-02-03T00:33:19;4.10;;;2.60;;
12774;SDS011;6451;42.630;23.382;2023-02-03T00:35:46;3.60;;;2.73;;
12774;SDS011;6451;42.630;23.382;2023-02-03T00:38:14;4.23;;;3.33;;
12774;SDS011;6451;42.630;23.382;2023-02-03T00:40:50;4.67;;;3.33;;
12774;SDS011;6451;42.630;23.382;2023-02-03T00:43:17;3.60;;;2.90;;
12774;SDS011;6451;42.630;23.382;2023-02-03T00:45:44;4.10;;;3.53;;
12774;SDS011;6451;42.630;23.382;2023-02-03T00:48:12;3.83;;;3.30;;
12774;SDS011;6451;42.630;23.382;2023-02-03T00:50:39;4.07;;;3.43;;
12774;SDS011;6451;42.630;23.382;2023-02-03T00:53:06;4.97;;;3.60;;
12774;SDS011;6451;42.630;23.382;2023-02-03T00:55:33;4.97;;;3.77;;
12774;SDS011;6451;42.630;23.382;2023-02-03T00:58:01;5.77;;;3.40;;
12774;SDS011;6451;42.630;23.382;2023-02-03T01:00:28;4.23;;;3.10;;
12774;SDS011;6451;42.630;23.382;2023-02-03T01:02:55;4.83;;;3.73;;
12774;SDS011;6451;42.630;23.382;2023-02-03T01:05:23;5.07;;;3.60;;
12774;SDS011;6451;42.630;23.382;2023-02-03T01:07:50;4.80;;;3.17;;
12774;SDS011;6451;42.630;23.382;2023-02-03T01:10:17;4.50;;;3.70;;
12774;SDS011;6451;42.630;23.382;2023-02-03T01:12:44;3.30;;;3.00;;
12774;SDS011;6451;42.630;23.382;2023-02-03T01:15:12;3.07;;;2.73;;
12774;SDS011;6451;42.630;23.382;2023-02-03T01:17:39;3.60;;;2.80;;
12774;SDS011;6451;42.630;23.382;2023-02-03T01:20:06;3.53;;;2.97;;
12774;SDS011;6451;42.630;23.382;2023-02-03T01:22:36;3.20;;;2.50;;
12774;SDS011;6451;42.630;23.382;2023-02-03T01:25:03;3.37;;;2.30;;
12774;SDS011;6451;42.630;23.382;2023-02-03T01:27:30;4.20;;;2.90;;
12774;SDS011;6451;42.630;23.382;2023-02-03T01:29:58;2.50;;;2.20;;
12774;SDS011;6451;42.630;23.382;2023-02-03T01:32:26;3.83;;;2.40;;
12774;SDS011;6451;42.630;23.382;2023-02-03T01:34:53;3.00;;;2.10;;
12774;SDS011;6451;42.630;23.382;2023-02-03T01:37:20;2.57;;;1.97;;
12774;SDS011;6451;42.630;23.382;2023-02-03T01:39:47;2.87;;;1.93;;
12774;SDS011;6451;42.630;23.382;2023-02-03T01:42:14;3.53;;;1.80;;
12774;SDS011;6451;42.630;23.382;2023-02-03T01:44:42;2.00;;;1.80;;
12774;SDS011;6451;42.630;23.382;2023-02-03T01:49:58;2.20;;;1.70;;
12774;SDS011;6451;42.630;23.382;2023-02-03T01:52:32;2.10;;;1.70;;
12774;SDS011;6451;42.630;23.382;2023-02-03T01:55:00;2.57;;;1.90;;
12774;SDS011;6451;42.630;23.382;2023-02-03T01:57:30;2.23;;;1.80;;
12774;SDS011;6451;42.630;23.382;2023-02-03T02:00:02;2.07;;;1.80;;
12774;SDS011;6451;42.630;23.382;2023-02-03T02:02:32;3.37;;;1.80;;
12774;SDS011;6451;42.630;23.382;2023-02-03T02:05:02;2.40;;;1.90;;
12774;SDS011;6451;42.630;23.382;2023-02-03T02:07:31;3.97;;;2.20;;
12774;SDS011;6451;42.630;23.382;2023-02-03T02:10:02;3.77;;;1.73;;
12774;SDS011;6451;42.630;23.382;2023-02-03T02:12:30;2.73;;;2.00;;
12774;SDS011;6451;42.630;23.382;2023-02-03T02:14:57;2.40;;;1.93;;
12774;SDS011;6451;42.630;23.382;2023-02-03T02:17:30;4.17;;;2.30;;
12774;SDS011;6451;42.630;23.382;2023-02-03T02:20:28;3.03;;;2.20;;
12774;SDS011;6451;42.630;23.382;2023-02-03T02:23:16;2.33;;;2.07;;
12774;SDS011;6451;42.630;23.382;2023-02-03T02:26:03;3.00;;;2.37;;
12774;SDS011;6451;42.630;23.382;2023-02-03T02:29:01;3.47;;;2.40;;
12774;SDS011;6451;42.630;23.382;2023-02-03T02:31:52;3.27;;;2.70;;
12774;SDS011;6451;42.630;23.382;2023-02-03T02:34:30;3.77;;;2.53;;
12774;SDS011;6451;42.630;23.382;2023-02-03T02:37:06;4.23;;;2.30;;
12774;SDS011;6451;42.630;23.382;2023-02-03T02:39:42;2.63;;;2.20;;
12774;SDS011;6451;42.630;23.382;2023-02-03T02:42:14;3.13;;;2.50;;
12774;SDS011;6451;42.630;23.382;2023-02-03T02:44:48;2.23;;;1.97;;
12774;SDS011;6451;42.630;23.382;2023-02-03T02:47:20;2.50;;;2.30;;
12774;SDS011;6451;42.630;23.382;2023-02-03T02:49:50;2.30;;;2.10;;
12774;SDS011;6451;42.630;23.382;2023-02-03T02:52:24;2.83;;;2.20;;
12774;SDS011;6451;42.630;23.382;2023-02-03T02:54:55;2.93;;;2.30;;
12774;SDS011;6451;42.630;23.382;2023-02-03T02:57:27;2.70;;;2.37;;
12774;SDS011;6451;42.630;23.382;2023-02-03T02:59:56;2.80;;;2.60;;
12774;SDS011;6451;42.630;23.382;2023-02-03T03:02:31;4.37;;;2.80;;
12774;SDS011;6451;42.630;23.382;2023-02-03T03:04:59;3.83;;;2.33;;
12774;SDS011;6451;42.630;23.382;2023-02-03T03:07:29;2.93;;;2.20;;
12774;SDS011;6451;42.630;23.382;2023-02-03T03:10:04;2.40;;;2.20;;
12774;SDS011;6451;42.630;23.382;2023-02-03T03:12:38;3.33;;;2.20;;
12774;SDS011;6451;42.630;23.382;2023-02-03T03:15:10;4.77;;;2.50;;
12774;SDS011;6451;42.630;23.382;2023-02-03T03:17:45;2.90;;;2.60;;
12774;SDS011;6451;42.630;23.382;2023-02-03T03:20:17;2.40;;;2.20;;
12774;SDS011;6451;42.630;23.382;2023-02-03T03:22:49;2.83;;;2.40;;
12774;SDS011;6451;42.630;23.382;2023-02-03T03:25:22;2.83;;;2.40;;
12774;SDS011;6451;42.630;23.382;2023-02-03T03:27:57;5.13;;;2.30;;
12774;SDS011;6451;42.630;23.382;2023-02-03T03:30:28;2.93;;;2.10;;
12774;SDS011;6451;42.630;23.382;2023-02-03T03:33:02;2.80;;;2.37;;
12774;SDS011;6451;42.630;23.382;2023-02-03T03:35:30;2.53;;;2.30;;
12774;SDS011;6451;42.630;23.382;2023-02-03T03:38:04;3.57;;;2.40;;
12774;SDS011;6451;42.630;23.382;2023-02-03T03:40:37;2.80;;;2.37;;
12774;SDS011;6451;42.630;23.382;2023-02-03T03:43:12;3.23;;;2.23;;
12774;SDS011;6451;42.630;23.382;2023-02-03T03:45:43;2.80;;;2.40;;
12774;SDS011;6451;42.630;23.382;2023-02-03T03:48:18;2.53;;;2.27;;
12774;SDS011;6451;42.630;23.382;2023-02-03T03:50:50;2.63;;;2.30;;
12774;SDS011;6451;42.630;23.382;2023-02-03T03:53:21;2.63;;;1.90;;
12774;SDS011;6451;42.630;23.382;2023-02-03T03:55:50;2.63;;;2.30;;
12774;SDS011;6451;42.630;23.382;2023-02-03T03:58:20;3.37;;;2.20;;
12774;SDS011;6451;42.630;23.382;2023-02-03T04:00:50;2.23;;;2.03;;
12774;SDS011;6451;42.630;23.382;2023-02-03T04:03:23;2.30;;;2.00;;
12774;SDS011;6451;42.630;23.382;2023-02-03T04:05:53;2.93;;;1.97;;
12774;SDS011;6451;42.630;23.382;2023-02-03T04:08:20;2.50;;;2.10;;
12774;SDS011;6451;42.630;23.382;2023-02-03T04:10:47;2.97;;;1.87;;
12774;SDS011;6451;42.630;23.382;2023-02-03T04:13:14;3.93;;;2.13;;
12774;SDS011;6451;42.630;23.382;2023-02-03T04:15:45;2.80;;;2.40;;
12774;SDS011;6451;42.630;23.382;2023-02-03T04:18:12;3.50;;;2.23;;
12774;SDS011;6451;42.630;23.382;2023-02-03T04:20:41;2.93;;;2.63;;
12774;SDS011;6451;42.630;23.382;2023-02-03T04:23:09;4.73;;;2.60;;
12774;SDS011;6451;42.630;23.382;2023-02-03T04:25:36;3.27;;;2.50;;
12774;SDS011;6451;42.630;23.382;2023-02-03T04:28:04;3.30;;;2.20;;
12774;SDS011;6451;42.630;23.382;2023-02-03T04:30:31;2.83;;;2.20;;
12774;SDS011;6451;42.630;23.382;2023-02-03T04:32:59;2.57;;;2.37;;
12774;SDS011;6451;42.630;23.382;2023-02-03T04:35:26;3.03;;;2.50;;
12774;SDS011;6451;42.630;23.382;2023-02-03T04:37:54;3.23;;;2.30;;
12774;SDS011;6451;42.630;23.382;2023-02-03T04:40:21;2.63;;;2.23;;
12774;SDS011;6451;42.630;23.382;2023-02-03T04:42:48;3.10;;;2.53;;
12774;SDS011;6451;42.630;23.382;2023-02-03T04:45:15;2.70;;;2.17;;
12774;SDS011;6451;42.630;23.382;2023-02-03T04:47:42;3.40;;;2.20;;
12774;SDS011;6451;42.630;23.382;2023-02-03T04:50:09;3.33;;;2.33;;
12774;SDS011;6451;42.630;23.382;2023-02-03T04:52:36;3.17;;;2.53;;
12774;SDS011;6451;42.630;23.382;2023-02-03T04:55:05;2.77;;;2.57;;
12774;SDS011;6451;42.630;23.382;2023-02-03T04:57:33;3.20;;;2.53;;
12774;SDS011;6451;42.630;23.382;2023-02-03T05:00:01;2.20;;;2.00;;
12774;SDS011;6451;42.630;23.382;2023-02-03T05:02:28;2.70;;;2.50;;
12774;SDS011;6451;42.630;23.382;2023-02-03T05:04:56;3.43;;;2.60;;
12774;SDS011;6451;42.630;23.382;2023-02-03T05:07:23;3.07;;;2.60;;
12774;SDS011;6451;42.630;23.382;2023-02-03T05:09:50;2.90;;;2.70;;
12774;SDS011;6451;42.630;23.382;2023-02-03T05:12:18;2.73;;;2.47;;
12774;SDS011;6451;42.630;23.382;2023-02-03T05:14:45;2.60;;;2.40;;
12774;SDS011;6451;42.630;23.382;2023-02-03T05:17:12;3.10;;;2.60;;
12774;SDS011;6451;42.630;23.382;2023-02-03T05:19:40;2.73;;;2.53;;
12774;SDS011;6451;42.630;23.382;2023-02-03T05:22:07;2.97;;;2.50;;
12774;SDS011;6451;42.630;23.382;2023-02-03T05:24:34;3.10;;;2.80;;
12774;SDS011;6451;42.630;23.382;2023-02-03T05:27:01;3.87;;;2.80;;
12774;SDS011;6451;42.630;23.382;2023-02-03T05:29:29;3.20;;;2.90;;
12774;SDS011;6451;42.630;23.382;2023-02-03T05:31:56;3.43;;;2.70;;
12774;SDS011;6451;42.630;23.382;2023-02-03T05:34:23;4.87;;;3.10;;
12774;SDS011;6451;42.630;23.382;2023-02-03T05:36:50;6.60;;;3.47;;
12774;SDS011;6451;42.630;23.382;2023-02-03T05:39:17;3.10;;;2.80;;
12774;SDS011;6451;42.630;23.382;2023-02-03T05:41:43;4.27;;;3.00;;
12774;SDS011;6451;42.630;23.382;2023-02-03T05:44:18;3.43;;;3.10;;
12774;SDS011;6451;42.630;23.382;2023-02-03T05:46:47;4.70;;;3.17;;
12774;SDS011;6451;42.630;23.382;2023-02-03T05:49:15;3.43;;;3.00;;
12774;SDS011;6451;42.630;23.382;2023-02-03T05:51:44;3.50;;;3.20;;
12774;SDS011;6451;42.630;23.382;2023-02-03T05:54:12;4.43;;;3.00;;
12774;SDS011;6451;42.630;23.382;2023-02-03T05:56:39;4.00;;;2.93;;
12774;SDS011;6451;42.630;23.382;2023-02-03T05:59:06;3.23;;;2.70;;
12774;SDS011;6451;42.630;23.382;2023-02-03T06:01:35;2.90;;;2.57;;
12774;SDS011;6451;42.630;23.382;2023-02-03T06:04:04;4.73;;;3.00;;
12774;SDS011;6451;42.630;23.382;2023-02-03T06:06:31;5.47;;;3.00;;
12774;SDS011;6451;42.630;23.382;2023-02-03T06:08:59;4.40;;;3.23;;
12774;SDS011;6451;42.630;23.382;2023-02-03T06:11:27;6.87;;;3.60;;
12774;SDS011;6451;42.630;23.382;2023-02-03T06:13:55;4.20;;;3.20;;
12774;SDS011;6451;42.630;23.382;2023-02-03T06:16:23;4.03;;;2.80;;
12774;SDS011;6451;42.630;23.382;2023-02-03T06:18:50;3.57;;;2.90;;
12774;SDS011;6451;42.630;23.382;2023-02-03T06:21:18;3.37;;;3.00;;
12774;SDS011;6451;42.630;23.382;2023-02-03T06:23:46;3.83;;;2.73;;
12774;SDS011;6451;42.630;23.382;2023-02-03T06:26:13;3.10;;;2.63;;
12774;SDS011;6451;42.630;23.382;2023-02-03T06:28:40;3.63;;;3.00;;
12774;SDS011;6451;42.630;23.382;2023-02-03T06:31:07;3.77;;;3.00;;
12774;SDS011;6451;42.630;23.382;2023-02-03T06:33:34;2.53;;;2.33;;
12774;SDS011;6451;42.630;23.382;2023-02-03T06:36:01;3.73;;;2.80;;
12774;SDS011;6451;42.630;23.382;2023-02-03T06:38:29;2.87;;;2.30;;
12774;SDS011;6451;42.630;23.382;2023-02-03T06:40:56;3.20;;;2.60;;
12774;SDS011;6451;42.630;23.382;2023-02-03T06:43:23;2.23;;;2.00;;
12774;SDS011;6451;42.630;23.382;2023-02-03T06:45:50;3.47;;;2.70;;
12774;SDS011;6451;42.630;23.382;2023-02-03T06:48:17;3.57;;;2.23;;
12774;SDS011;6451;42.630;23.382;2023-02-03T06:50:44;2.10;;;1.90;;
12774;SDS011;6451;42.630;23.382;2023-02-03T06:53:11;3.00;;;2.20;;
12774;SDS011;6451;42.630;23.382;2023-02-03T06:55:39;3.40;;;1.73;;
12774;SDS011;6451;42.630;23.382;2023-02-03T06:58:06;2.43;;;1.93;;
12774;SDS011;6451;42.630;23.382;2023-02-03T07:00:33;3.27;;;2.50;;
12774;SDS011;6451;42.630;23.382;2023-02-03T07:03:00;3.13;;;2.60;;
12774;SDS011;6451;42.630;23.382;2023-02-03T07:05:27;3.80;;;2.13;;
12774;SDS011;6451;42.630;23.382;2023-02-03T07:07:55;3.10;;;2.10;;
12774;SDS011;6451;42.630;23.382;2023-02-03T07:10:24;2.93;;;1.90;;
12774;SDS011;6451;42.630;23.382;2023-02-03T07:12:53;3.20;;;2.50;;
12774;SDS011;6451;42.630;23.382;2023-02-03T07:15:20;4.90;;;2.30;;
12774;SDS011;6451;42.630;23.382;2023-02-03T07:17:47;3.10;;;2.10;;
12774;SDS011;6451;42.630;23.382;2023-02-03T07:20:19;3.10;;;2.60;;
12774;SDS011;6451;42.630;23.382;2023-02-03T07:22:50;2.73;;;2.43;;
12774;SDS011;6451;42.630;23.382;2023-02-03T07:25:19;3.13;;;2.50;;
12774;SDS011;6451;42.630;23.382;2023-02-03T07:27:47;5.47;;;2.90;;
12774;SDS011;6451;42.630;23.382;2023-02-03T07:30:18;6.37;;;2.57;;
12774;SDS011;6451;42.630;23.382;2023-02-03T07:32:46;4.77;;;2.60;;
12774;SDS011;6451;42.630;23.382;2023-02-03T07:35:14;3.00;;;2.57;;
12774;SDS011;6451;42.630;23.382;2023-02-03T07:37:42;2.67;;;2.40;;
12774;SDS011;6451;42.630;23.382;2023-02-03T07:40:09;3.47;;;2.60;;
12774;SDS011;6451;42.630;23.382;2023-02-03T07:42:39;6.03;;;2.30;;
12774;SDS011;6451;42.630;23.382;2023-02-03T07:45:07;4.07;;;2.30;;
12774;SDS011;6451;42.630;23.382;2023-02-03T07:47:37;3.33;;;2.30;;
12774;SDS011;6451;42.630;23.382;2023-02-03T07:50:04;3.13;;;1.93;;
12774;SDS011;6451;42.630;23.382;2023-02-03T07:52:34;5.17;;;2.30;;
12774;SDS011;6451;42.630;23.382;2023-02-03T07:55:01;2.73;;;2.10;;
12774;SDS011;6451;42.630;23.382;2023-02-03T07:57:28;2.50;;;2.20;;
12774;SDS011;6451;42.630;23.382;2023-02-03T07:59:55;3.93;;;2.20;;
12774;SDS011;6451;42.630;23.382;2023-02-03T08:02:22;1.80;;;1.70;;
12774;SDS011;6451;42.630;23.382;2023-02-03T08:04:51;3.80;;;2.50;;
12774;SDS011;6451;42.630;23.382;2023-02-03T08:07:18;3.30;;;2.10;;
12774;SDS011;6451;42.630;23.382;2023-02-03T08:09:44;2.83;;;2.30;;
12774;SDS011;6451;42.630;23.382;2023-02-03T08:12:11;2.93;;;2.60;;
12774;SDS011;6451;42.630;23.382;2023-02-03T08:14:38;2.73;;;2.53;;
12774;SDS011;6451;42.630;23.382;2023-02-03T08:17:08;3.07;;;2.20;;
12774;SDS011;6451;42.630;23.382;2023-02-03T08:19:35;3.13;;;2.10;;
12774;SDS011;6451;42.630;23.382;2023-02-03T08:22:04;3.37;;;2.47;;
12774;SDS011;6451;42.630;23.382;2023-02-03T08:24:30;3.10;;;2.20;;
12774;SDS011;6451;42.630;23.382;2023-02-03T08:26:57;2.90;;;1.93;;
12774;SDS011;6451;42.630;23.382;2023-02-03T08:29:26;2.40;;;2.00;;
12774;SDS011;6451;42.630;23.382;2023-02-03T08:31:53;5.43;;;2.50;;
12774;SDS011;6451;42.630;23.382;2023-02-03T08:34:22;2.83;;;2.40;;
12774;SDS011;6451;42.630;23.382;2023-02-03T08:36:49;5.03;;;2.60;;
12774;SDS011;6451;42.630;23.382;2023-02-03T08:39:18;2.57;;;2.27;;
12774;SDS011;6451;42.630;23.382;2023-02-03T08:41:45;2.87;;;2.20;;
12774;SDS011;6451;42.630;23.382;2023-02-03T08:44:12;4.67;;;2.30;;
12774;SDS011;6451;42.630;23.382;2023-02-03T08:46:39;2.60;;;2.20;;
12774;SDS011;6451;42.630;23.382;2023-02-03T08:49:08;3.00;;;2.30;;
12774;SDS011;6451;42.630;23.382;2023-02-03T08:51:35;3.47;;;2.30;;
12774;SDS011;6451;42.630;23.382;2023-02-03T08:54:03;5.93;;;1.97;;
12774;SDS011;6451;42.630;23.382;2023-02-03T08:56:31;2.33;;;1.87;;
12774;SDS011;6451;42.630;23.382;2023-02-03T08:58:59;4.37;;;2.33;;
12774;SDS011;6451;42.630;23.382;2023-02-03T09:01:26;2.73;;;2.20;;
12774;SDS011;6451;42.630;23.382;2023-02-03T09:03:53;2.60;;;2.10;;
12774;SDS011;6451;42.630;23.382;2023-02-03T09:06:20;3.83;;;1.60;;
12774;SDS011;6451;42.630;23.382;2023-02-03T09:08:51;2.10;;;1.87;;
12774;SDS011;6451;42.630;23.382;2023-02-03T09:11:20;4.37;;;2.40;;
12774;SDS011;6451;42.630;23.382;2023-02-03T09:13:48;3.47;;;2.20;;
12774;SDS011;6451;42.630;23.382;2023-02-03T09:16:17;2.37;;;1.90;;
12774;SDS011;6451;42.630;23.382;2023-02-03T09:18:46;3.23;;;2.00;;
12774;SDS011;6451;42.630;23.382;2023-02-03T09:21:13;2.57;;;1.93;;
12774;SDS011;6451;42.630;23.382;2023-02-03T09:23:43;3.40;;;2.20;;
12774;SDS011;6451;42.630;23.382;2023-02-03T09:26:11;3.73;;;1.67;;
12774;SDS011;6451;42.630;23.382;2023-02-03T09:28:42;3.27;;;1.90;;
12774;SDS011;6451;42.630;23.382;2023-02-03T09:31:14;2.33;;;1.77;;
12774;SDS011;6451;42.630;23.382;2023-02-03T09:33:42;1.80;;;1.70;;
12774;SDS011;6451;42.630;23.382;2023-02-03T09:36:09;2.10;;;1.60;;
12774;SDS011;6451;42.630;23.382;2023-02-03T09:38:36;2.83;;;1.87;;
12774;SDS011;6451;42.630;23.382;2023-02-03T09:41:06;4.67;;;2.00;;
12774;SDS011;6451;42.630;23.382;2023-02-03T09:43:45;2.87;;;1.80;;
12774;SDS011;6451;42.630;23.382;2023-02-03T09:46:20;1.80;;;1.70;;
12774;SDS011;6451;42.630;23.382;2023-02-03T09:48:49;2.40;;;1.90;;
12774;SDS011;6451;42.630;23.382;2023-02-03T09:51:21;2.80;;;2.00;;
12774;SDS011;6451;42.630;23.382;2023-02-03T09:53:53;3.90;;;1.80;;
12774;SDS011;6451;42.630;23.382;2023-02-03T09:56:25;2.03;;;1.80;;
12774;SDS011;6451;42.630;23.382;2023-02-03T09:58:55;3.40;;;1.50;;
12774;SDS011;6451;42.630;23.382;2023-02-03T10:01:26;2.53;;;1.60;;
12774;SDS011;6451;42.630;23.382;2023-02-03T10:04:00;2.43;;;1.53;;
12774;SDS011;6451;42.630;23.382;2023-02-03T10:06:32;1.50;;;1.40;;
12774;SDS011;6451;42.630;23.382;2023-02-03T10:12:10;1.97;;;1.60;;
12774;SDS011;6451;42.630;23.382;2023-02-03T10:14:53;1.30;;;1.13;;
12774;SDS011;6451;42.630;23.382;2023-02-03T10:17:31;1.93;;;1.50;;
12774;SDS011;6451;42.630;23.382;2023-02-03T10:20:04;2.37;;;1.60;;
12774;SDS011;6451;42.630;23.382;2023-02-03T10:22:39;3.70;;;1.90;;
12774;SDS011;6451;42.630;23.382;2023-02-03T10:25:14;2.43;;;1.70;;
12774;SDS011;6451;42.630;23.382;2023-02-03T10:27:48;3.03;;;1.93;;
12774;SDS011;6451;42.630;23.382;2023-02-03T10:30:18;3.13;;;2.40;;
12774;SDS011;6451;42.630;23.382;2023-02-03T10:32:49;2.30;;;2.10;;
12774;SDS011;6451;42.630;23.382;2023-02-03T10:35:18;4.63;;;1.90;;
12774;SDS011;6451;42.630;23.382;2023-02-03T10:37:48;2.93;;;2.10;;
12774;SDS011;6451;42.630;23.382;2023-02-03T10:40:20;2.53;;;1.80;;
12774;SDS011;6451;42.630;23.382;2023-02-03T10:42:49;2.60;;;1.80;;
12774;SDS011;6451;42.630;23.382;2023-02-03T10:45:36;1.70;;;1.60;;
12774;SDS011;6451;42.630;23.382;2023-02-03T10:48:05;2.37;;;1.80;;
12774;SDS011;6451;42.630;23.382;2023-02-03T10:50:37;3.43;;;1.87;;
12774;SDS011;6451;42.630;23.382;2023-02-03T10:53:21;2.13;;;1.90;;
12774;SDS011;6451;42.630;23.382;2023-02-03T10:55:51;2.13;;;1.93;;
12774;SDS011;6451;42.630;23.382;2023-02-03T10:58:27;2.63;;;1.60;;
12774;SDS011;6451;42.630;23.382;2023-02-03T11:00:56;2.13;;;1.93;;
12774;SDS011;6451;42.630;23.382;2023-02-03T11:03:31;2.43;;;1.93;;
12774;SDS011;6451;42.630;23.382;2023-02-03T11:06:03;2.20;;;1.90;;
12774;SDS011;6451;42.630;23.382;2023-02-03T11:08:33;1.83;;;1.60;;
12774;SDS011;6451;42.630;23.382;2023-02-03T11:11:01;3.63;;;1.70;;
12774;SDS011;6451;42.630;23.382;2023-02-03T11:13:29;2.90;;;1.90;;
12774;SDS011;6451;42.630;23.382;2023-02-03T11:15:58;3.37;;;2.00;;
12774;SDS011;6451;42.630;23.382;2023-02-03T11:18:39;4.03;;;1.90;;
12774;SDS011;6451;42.630;23.382;2023-02-03T11:21:10;2.37;;;1.80;;
12774;SDS011;6451;42.630;23.382;2023-02-03T11:23:54;2.83;;;1.70;;
12774;SDS011;6451;42.630;23.382;2023-02-03T11:26:30;3.87;;;1.90;;
12774;SDS011;6451;42.630;23.382;2023-02-03T11:28:59;2.43;;;1.73;;
12774;SDS011;6451;42.630;23.382;2023-02-03T11:31:28;3.27;;;1.80;;
12774;SDS011;6451;42.630;23.382;2023-02-03T11:33:59;2.63;;;1.70;;
12774;SDS011;6451;42.630;23.382;2023-02-03T11:36:29;2.17;;;1.70;;
12774;SDS011;6451;42.630;23.382;2023-02-03T11:39:08;2.00;;;1.73;;
12774;SDS011;6451;42.630;23.382;2023-02-03T11:41:50;3.73;;;2.20;;
12774;SDS011;6451;42.630;23.382;2023-02-03T11:44:19;2.13;;;1.80;;
12774;SDS011;6451;42.630;23.382;2023-02-03T11:46:49;4.43;;;2.00;;
12774;SDS011;6451;42.630;23.382;2023-02-03T11:49:32;2.10;;;1.90;;
12774;SDS011;6451;42.630;23.382;2023-02-03T11:55:09;4.20;;;1.73;;
12774;SDS011;6451;42.630;23.382;2023-02-03T11:57:49;2.90;;;1.70;;
12774;SDS011;6451;42.630;23.382;2023-02-03T12:00:28;4.47;;;1.70;;
12774;SDS011;6451;42.630;23.382;2023-02-03T12:03:17;2.87;;;1.90;;
12774;SDS011;6451;42.630;23.382;2023-02-03T12:06:17;1.70;;;1.60;;
12774;SDS011;6451;42.630;23.382;2023-02-03T12:09:05;1.97;;;1.70;;
12774;SDS011;6451;42.630;23.382;2023-02-03T12:11:53;3.13;;;1.90;;
12774;SDS011;6451;42.630;23.382;2023-02-03T12:14:36;4.37;;;2.07;;
12774;SDS011;6451;42.630;23.382;2023-02-03T12:17:22;2.47;;;1.80;;
12774;SDS011;6451;42.630;23.382;2023-02-03T12:20:20;2.70;;;1.77;;
12774;SDS011;6451;42.630;23.382;2023-02-03T12:23:00;3.13;;;1.90;;
12774;SDS011;6451;42.630;23.382;2023-02-03T12:25:41;1.97;;;1.63;;
12774;SDS011;6451;42.630;23.382;2023-02-03T12:28:26;2.53;;;1.80;;
12774;SDS011;6451;42.630;23.382;2023-02-03T12:31:08;1.93;;;1.67;;
12774;SDS011;6451;42.630;23.382;2023-02-03T12:33:42;4.17;;;2.10;;
12774;SDS011;6451;42.630;23.382;2023-02-03T12:36:14;2.60;;;1.80;;
12774;SDS011;6451;42.630;23.382;2023-02-03T12:38:50;2.73;;;1.63;;
12774;SDS011;6451;42.630;23.382;2023-02-03T12:41:23;1.57;;;1.47;;
12774;SDS011;6451;42.630;23.382;2023-02-03T12:43:57;3.00;;;1.80;;
12774;SDS011;6451;42.630;23.382;2023-02-03T12:46:36;3.63;;;1.80;;
12774;SDS011;6451;42.630;23.382;2023-02-03T12:49:22;3.23;;;1.63;;
12774;SDS011;6451;42.630;23.382;2023-02-03T12:51:56;2.63;;;1.67;;
12774;SDS011;6451;42.630;23.382;2023-02-03T12:54:32;1.77;;;1.43;;
12774;SDS011;6451;42.630;23.382;2023-02-03T12:57:08;2.87;;;2.10;;
12774;SDS011;6451;42.630;23.382;2023-02-03T12:59:50;3.23;;;1.70;;
12774;SDS011;6451;42.630;23.382;2023-02-03T13:02:35;2.43;;;2.00;;
12774;SDS011;6451;42.630;23.382;2023-02-03T13:05:27;3.87;;;2.17;;
12774;SDS011;6451;42.630;23.382;2023-02-03T13:08:08;2.93;;;2.07;;
12774;SDS011;6451;42.630;23.382;2023-02-03T13:11:14;3.57;;;1.90;;
12774;SDS011;6451;42.630;23.382;2023-02-03T13:13:51;2.73;;;2.00;;
12774;SDS011;6451;42.630;23.382;2023-02-03T13:16:29;4.47;;;2.20;;
12774;SDS011;6451;42.630;23.382;2023-02-03T13:19:02;2.30;;;1.80;;
12774;SDS011;6451;42.630;23.382;2023-02-03T13:21:33;3.60;;;2.20;;
12774;SDS011;6451;42.630;23.382;2023-02-03T13:24:02;6.70;;;2.07;;
12774;SDS011;6451;42.630;23.382;2023-02-03T13:26:39;2.50;;;1.80;;
12774;SDS011;6451;42.630;23.382;2023-02-03T13:32:38;3.67;;;2.20;;
12774;SDS011;6451;42.630;23.382;2023-02-03T13:35:26;2.80;;;2.10;;
12774;SDS011;6451;42.630;23.382;2023-02-03T13:38:09;4.77;;;2.30;;
12774;SDS011;6451;42.630;23.382;2023-02-03T13:41:04;3.93;;;2.27;;
12774;SDS011;6451;42.630;23.382;2023-02-03T13:43:42;5.47;;;2.50;;
12774;SDS011;6451;42.630;23.382;2023-02-03T13:46:18;3.87;;;2.43;;
12774;SDS011;6451;42.630;23.382;2023-02-03T13:49:01;3.20;;;2.60;;
12774;SDS011;6451;42.630;23.382;2023-02-03T13:51:31;3.20;;;2.60;;
12774;SDS011;6451;42.630;23.382;2023-02-03T13:54:12;3.20;;;2.53;;
12774;SDS011;6451;42.630;23.382;2023-02-03T13:56:52;5.63;;;2.43;;
12774;SDS011;6451;42.630;23.382;2023-02-03T13:59:37;4.37;;;3.00;;
12774;SDS011;6451;42.630;23.382;2023-02-03T14:04:57;2.97;;;2.63;;
12774;SDS011;6451;42.630;23.382;2023-02-03T14:07:27;2.93;;;2.67;;
12774;SDS011;6451;42.630;23.382;2023-02-03T14:10:12;4.63;;;2.63;;
12774;SDS011;6451;42.630;23.382;2023-02-03T14:12:54;5.93;;;3.23;;
12774;SDS011;6451;42.630;23.382;2023-02-03T14:15:32;3.33;;;2.87;;
12774;SDS011;6451;42.630;23.382;2023-02-03T14:18:04;3.90;;;3.03;;
12774;SDS011;6451;42.630;23.382;2023-02-03T14:23:44;4.83;;;3.17;;
12774;SDS011;6451;42.630;23.382;2023-02-03T14:26:19;4.07;;;2.67;;
12774;SDS011;6451;42.630;23.382;2023-02-03T14:28:54;3.77;;;2.80;;
12774;SDS011;6451;42.630;23.382;2023-02-03T14:31:23;5.27;;;2.90;;
12774;SDS011;6451;42.630;23.382;2023-02-03T14:34:03;3.47;;;3.07;;
12774;SDS011;6451;42.630;23.382;2023-02-03T14:36:42;5.37;;;3.00;;
12774;SDS011;6451;42.630;23.382;2023-02-03T14:42:33;7.83;;;2.83;;
12774;SDS011;6451;42.630;23.382;2023-02-03T14:45:12;4.00;;;2.90;;
12774;SDS011;6451;42.630;23.382;2023-02-03T14:47:56;6.20;;;3.40;;
12774;SDS011;6451;42.630;23.382;2023-02-03T14:50:34;6.43;;;3.00;;
12774;SDS011;6451;42.630;23.382;2023-02-03T14:53:15;4.20;;;2.87;;
12774;SDS011;6451;42.630;23.382;2023-02-03T14:55:58;3.83;;;2.43;;
12774;SDS011;6451;42.630;23.382;2023-02-03T14:58:40;5.43;;;2.80;;
12774;SDS011;6451;42.630;23.382;2023-02-03T15:01:24;4.40;;;2.90;;
12774;SDS011;6451;42.630;23.382;2023-02-03T15:06:49;4.90;;;2.43;;
12774;SDS011;6451;42.630;23.382;2023-02-03T15:09:20;4.00;;;2.93;;
12774;SDS011;6451;42.630;23.382;2023-02-03T15:11:52;4.63;;;3.10;;
12774;SDS011;6451;42.630;23.382;2023-02-03T15:14:20;5.70;;;3.00;;
12774;SDS011;6451;42.630;23.382;2023-02-03T15:16:52;5.03;;;2.83;;
12774;SDS011;6451;42.630;23.382;2023-02-03T15:19:23;3.87;;;3.10;;
12774;SDS011;6451;42.630;23.382;2023-02-03T15:21:52;5.30;;;2.70;;
12774;SDS011;6451;42.630;23.382;2023-02-03T15:24:21;4.53;;;2.80;;
12774;SDS011;6451;42.630;23.382;2023-02-03T15:26:51;5.30;;;3.23;;
12774;SDS011;6451;42.630;23.382;2023-02-03T15:29:25;5.23;;;3.10;;
12774;SDS011;6451;42.630;23.382;2023-02-03T15:31:57;7.43;;;3.10;;
12774;SDS011;6451;42.630;23.382;2023-02-03T15:34:33;8.30;;;3.23;;
12774;SDS011;6451;42.630;23.382;2023-02-03T15:37:05;3.87;;;3.07;;
12774;SDS011;6451;42.630;23.382;2023-02-03T15:39:41;5.40;;;2.90;;